sensor_id;sensor_type;location;lat;lon;timestamp;P1;durP1;ratioP1;P2;durP2;ratioP2
54599;SDS011;40500;51.084;16.958;2023-05-29T00:01:53;5.50;;;3.10;;
54599;SDS011;40500;51.084;16.958;2023-05-29T00:04:22;7.60;;;3.00;;
54599;SDS011;40500;51.084;16.958;2023-05-29T00:06:50;4.50;;;3.20;;
54599;SDS011;40500;51.084;16.958;2023-05-29T00:09:18;7.40;;;3.20;;
54599;SDS011;40500;51.084;16.958;2023-05-29T00:11:47;4.60;;;3.20;;
54599;SDS011;40500;51.084;16.958;2023-05-29T00:14:19;4.50;;;2.90;;
54599;SDS011;40500;51.084;16.958;2023-05-29T00:16:48;4.50;;;3.10;;
54599;SDS011;40500;51.084;16.958;2023-05-29T00:19:16;6.40;;;3.50;;
54599;SDS011;40500;51.084;16.958;2023-05-29T00:21:45;6.90;;;3.60;;
54599;SDS011;40500;51.084;16.958;2023-05-29T00:24:18;7.40;;;4.40;;
54599;SDS011;40500;51.084;16.958;2023-05-29T00:26:49;6.60;;;3.70;;
54599;SDS011;40500;51.084;16.958;2023-05-29T00:29:18;4.90;;;3.40;;
54599;SDS011;40500;51.084;16.958;2023-05-29T00:31:49;10.30;;;4.00;;
54599;SDS011;40500;51.084;16.958;2023-05-29T00:34:22;7.60;;;3.40;;
54599;SDS011;40500;51.084;16.958;2023-05-29T00:36:51;4.40;;;3.00;;
54599;SDS011;40500;51.084;16.958;2023-05-29T00:39:21;5.80;;;2.80;;
54599;SDS011;40500;51.084;16.958;2023-05-29T00:41:50;8.30;;;3.60;;
54599;SDS011;40500;51.084;16.958;2023-05-29T00:44:19;6.20;;;3.50;;
54599;SDS011;40500;51.084;16.958;2023-05-29T00:46:48;6.80;;;4.10;;
54599;SDS011;40500;51.084;16.958;2023-05-29T00:49:19;6.50;;;3.70;;
54599;SDS011;40500;51.084;16.958;2023-05-29T00:51:50;5.20;;;3.50;;
54599;SDS011;40500;51.084;16.958;2023-05-29T00:54:21;9.90;;;3.20;;
54599;SDS011;40500;51.084;16.958;2023-05-29T00:56:57;5.50;;;3.60;;
54599;SDS011;40500;51.084;16.958;2023-05-29T00:59:28;5.70;;;3.20;;
54599;SDS011;40500;51.084;16.958;2023-05-29T01:01:58;6.00;;;3.10;;
54599;SDS011;40500;51.084;16.958;2023-05-29T01:04:30;7.50;;;3.30;;
54599;SDS011;40500;51.084;16.958;2023-05-29T01:07:00;7.20;;;3.20;;
54599;SDS011;40500;51.084;16.958;2023-05-29T01:09:28;4.50;;;2.70;;
54599;SDS011;40500;51.084;16.958;2023-05-29T01:12:09;4.40;;;2.90;;
54599;SDS011;40500;51.084;16.958;2023-05-29T01:14:57;5.40;;;3.00;;
54599;SDS011;40500;51.084;16.958;2023-05-29T01:17:41;6.30;;;3.30;;
54599;SDS011;40500;51.084;16.958;2023-05-29T01:20:25;8.20;;;3.20;;
54599;SDS011;40500;51.084;16.958;2023-05-29T01:23:08;4.20;;;3.00;;
54599;SDS011;40500;51.084;16.958;2023-05-29T01:26:01;4.30;;;2.60;;
54599;SDS011;40500;51.084;16.958;2023-05-29T01:28:40;5.50;;;2.60;;
54599;SDS011;40500;51.084;16.958;2023-05-29T01:31:14;4.40;;;2.90;;
54599;SDS011;40500;51.084;16.958;2023-05-29T01:33:52;4.80;;;2.80;;
54599;SDS011;40500;51.084;16.958;2023-05-29T01:36:22;7.70;;;3.10;;
54599;SDS011;40500;51.084;16.958;2023-05-29T01:38:53;5.00;;;2.80;;
54599;SDS011;40500;51.084;16.958;2023-05-29T01:41:24;4.10;;;2.40;;
54599;SDS011;40500;51.084;16.958;2023-05-29T01:43:53;3.40;;;2.40;;
54599;SDS011;40500;51.084;16.958;2023-05-29T01:46:29;4.20;;;2.90;;
54599;SDS011;40500;51.084;16.958;2023-05-29T01:48:57;5.70;;;2.70;;
54599;SDS011;40500;51.084;16.958;2023-05-29T01:51:24;4.20;;;2.40;;
54599;SDS011;40500;51.084;16.958;2023-05-29T01:53:56;3.40;;;2.50;;
54599;SDS011;40500;51.084;16.958;2023-05-29T01:56:29;5.20;;;2.70;;
54599;SDS011;40500;51.084;16.958;2023-05-29T01:59:01;5.80;;;2.80;;
54599;SDS011;40500;51.084;16.958;2023-05-29T02:01:30;3.70;;;2.80;;
54599;SDS011;40500;51.084;16.958;2023-05-29T02:04:02;4.10;;;2.50;;
54599;SDS011;40500;51.084;16.958;2023-05-29T02:06:30;4.10;;;2.40;;
54599;SDS011;40500;51.084;16.958;2023-05-29T02:09:00;3.50;;;2.50;;
54599;SDS011;40500;51.084;16.958;2023-05-29T02:11:30;6.70;;;2.70;;
54599;SDS011;40500;51.084;16.958;2023-05-29T02:13:59;6.60;;;2.60;;
54599;SDS011;40500;51.084;16.958;2023-05-29T02:16:31;6.30;;;3.20;;
54599;SDS011;40500;51.084;16.958;2023-05-29T02:19:03;7.10;;;2.60;;
54599;SDS011;40500;51.084;16.958;2023-05-29T02:21:33;3.90;;;2.90;;
54599;SDS011;40500;51.084;16.958;2023-05-29T02:24:04;3.50;;;2.50;;
54599;SDS011;40500;51.084;16.958;2023-05-29T02:26:34;3.80;;;2.60;;
54599;SDS011;40500;51.084;16.958;2023-05-29T02:29:04;4.10;;;2.40;;
54599;SDS011;40500;51.084;16.958;2023-05-29T02:31:32;5.20;;;2.70;;
54599;SDS011;40500;51.084;16.958;2023-05-29T02:34:04;4.10;;;2.50;;
54599;SDS011;40500;51.084;16.958;2023-05-29T02:36:32;3.70;;;2.60;;
54599;SDS011;40500;51.084;16.958;2023-05-29T02:39:08;3.60;;;2.60;;
54599;SDS011;40500;51.084;16.958;2023-05-29T02:41:38;3.50;;;2.50;;
54599;SDS011;40500;51.084;16.958;2023-05-29T02:44:06;4.20;;;2.40;;
54599;SDS011;40500;51.084;16.958;2023-05-29T02:46:34;4.70;;;2.50;;
54599;SDS011;40500;51.084;16.958;2023-05-29T02:49:01;4.70;;;2.80;;
54599;SDS011;40500;51.084;16.958;2023-05-29T02:51:29;3.40;;;2.30;;
54599;SDS011;40500;51.084;16.958;2023-05-29T02:54:00;3.20;;;2.60;;
54599;SDS011;40500;51.084;16.958;2023-05-29T02:56:28;4.80;;;2.80;;
54599;SDS011;40500;51.084;16.958;2023-05-29T02:58:59;3.00;;;2.40;;
54599;SDS011;40500;51.084;16.958;2023-05-29T03:01:29;2.50;;;2.00;;
54599;SDS011;40500;51.084;16.958;2023-05-29T03:04:00;3.30;;;2.40;;
54599;SDS011;40500;51.084;16.958;2023-05-29T03:06:28;3.80;;;2.80;;
54599;SDS011;40500;51.084;16.958;2023-05-29T03:08:56;4.40;;;2.80;;
54599;SDS011;40500;51.084;16.958;2023-05-29T03:11:25;5.50;;;2.70;;
54599;SDS011;40500;51.084;16.958;2023-05-29T03:13:55;3.50;;;2.70;;
54599;SDS011;40500;51.084;16.958;2023-05-29T03:16:23;4.70;;;2.80;;
54599;SDS011;40500;51.084;16.958;2023-05-29T03:18:51;5.60;;;2.40;;
54599;SDS011;40500;51.084;16.958;2023-05-29T03:21:19;4.50;;;2.80;;
54599;SDS011;40500;51.084;16.958;2023-05-29T03:23:48;3.60;;;2.60;;
54599;SDS011;40500;51.084;16.958;2023-05-29T03:26:16;4.60;;;2.70;;
54599;SDS011;40500;51.084;16.958;2023-05-29T03:28:45;3.80;;;2.60;;
54599;SDS011;40500;51.084;16.958;2023-05-29T03:31:12;5.00;;;3.00;;
54599;SDS011;40500;51.084;16.958;2023-05-29T03:33:41;4.20;;;2.70;;
54599;SDS011;40500;51.084;16.958;2023-05-29T03:36:26;3.70;;;2.40;;
54599;SDS011;40500;51.084;16.958;2023-05-29T03:38:55;6.70;;;3.40;;
54599;SDS011;40500;51.084;16.958;2023-05-29T03:41:23;4.60;;;3.00;;
54599;SDS011;40500;51.084;16.958;2023-05-29T03:43:52;5.20;;;3.30;;
54599;SDS011;40500;51.084;16.958;2023-05-29T03:46:24;3.70;;;2.40;;
54599;SDS011;40500;51.084;16.958;2023-05-29T03:48:55;7.30;;;3.00;;
54599;SDS011;40500;51.084;16.958;2023-05-29T03:51:22;8.20;;;3.80;;
54599;SDS011;40500;51.084;16.958;2023-05-29T03:53:53;7.20;;;3.90;;
54599;SDS011;40500;51.084;16.958;2023-05-29T03:56:22;5.60;;;3.20;;
54599;SDS011;40500;51.084;16.958;2023-05-29T03:58:52;7.50;;;3.30;;
54599;SDS011;40500;51.084;16.958;2023-05-29T04:01:20;5.40;;;2.80;;
54599;SDS011;40500;51.084;16.958;2023-05-29T04:03:53;4.20;;;2.60;;
54599;SDS011;40500;51.084;16.958;2023-05-29T04:06:23;7.00;;;2.70;;
54599;SDS011;40500;51.084;16.958;2023-05-29T04:08:51;3.50;;;2.60;;
54599;SDS011;40500;51.084;16.958;2023-05-29T04:11:19;6.90;;;3.00;;
54599;SDS011;40500;51.084;16.958;2023-05-29T04:13:54;5.10;;;3.20;;
54599;SDS011;40500;51.084;16.958;2023-05-29T04:16:21;6.00;;;2.90;;
54599;SDS011;40500;51.084;16.958;2023-05-29T04:18:49;6.30;;;3.30;;
54599;SDS011;40500;51.084;16.958;2023-05-29T04:21:19;3.50;;;2.70;;
54599;SDS011;40500;51.084;16.958;2023-05-29T04:23:47;5.20;;;3.20;;
54599;SDS011;40500;51.084;16.958;2023-05-29T04:26:15;6.00;;;3.40;;
54599;SDS011;40500;51.084;16.958;2023-05-29T04:28:43;3.30;;;2.60;;
54599;SDS011;40500;51.084;16.958;2023-05-29T04:31:11;4.60;;;3.60;;
54599;SDS011;40500;51.084;16.958;2023-05-29T04:33:44;6.00;;;3.40;;
54599;SDS011;40500;51.084;16.958;2023-05-29T04:36:27;3.90;;;2.70;;
54599;SDS011;40500;51.084;16.958;2023-05-29T04:39:05;5.00;;;3.60;;
54599;SDS011;40500;51.084;16.958;2023-05-29T04:41:34;5.00;;;3.50;;
54599;SDS011;40500;51.084;16.958;2023-05-29T04:44:05;5.70;;;3.30;;
54599;SDS011;40500;51.084;16.958;2023-05-29T04:46:41;5.70;;;3.10;;
54599;SDS011;40500;51.084;16.958;2023-05-29T04:49:22;4.80;;;2.80;;
54599;SDS011;40500;51.084;16.958;2023-05-29T04:51:50;13.10;;;3.30;;
54599;SDS011;40500;51.084;16.958;2023-05-29T04:54:24;5.10;;;2.90;;
54599;SDS011;40500;51.084;16.958;2023-05-29T04:56:55;3.80;;;2.90;;
54599;SDS011;40500;51.084;16.958;2023-05-29T04:59:26;4.60;;;2.90;;
54599;SDS011;40500;51.084;16.958;2023-05-29T05:01:55;6.40;;;3.00;;
54599;SDS011;40500;51.084;16.958;2023-05-29T05:04:25;4.90;;;2.90;;
54599;SDS011;40500;51.084;16.958;2023-05-29T05:06:53;5.10;;;3.30;;
54599;SDS011;40500;51.084;16.958;2023-05-29T05:09:21;5.50;;;3.60;;
54599;SDS011;40500;51.084;16.958;2023-05-29T05:11:49;7.10;;;3.60;;
54599;SDS011;40500;51.084;16.958;2023-05-29T05:14:23;5.20;;;3.10;;
54599;SDS011;40500;51.084;16.958;2023-05-29T05:16:52;6.20;;;3.50;;
54599;SDS011;40500;51.084;16.958;2023-05-29T05:19:25;11.60;;;4.10;;
54599;SDS011;40500;51.084;16.958;2023-05-29T05:21:55;5.60;;;3.50;;
54599;SDS011;40500;51.084;16.958;2023-05-29T05:24:26;5.30;;;3.30;;
54599;SDS011;40500;51.084;16.958;2023-05-29T05:26:56;5.00;;;3.40;;
54599;SDS011;40500;51.084;16.958;2023-05-29T05:29:24;10.80;;;3.40;;
54599;SDS011;40500;51.084;16.958;2023-05-29T05:31:54;9.90;;;3.70;;
54599;SDS011;40500;51.084;16.958;2023-05-29T05:34:23;10.00;;;3.40;;
54599;SDS011;40500;51.084;16.958;2023-05-29T05:36:52;7.90;;;3.50;;
54599;SDS011;40500;51.084;16.958;2023-05-29T05:39:20;6.80;;;3.10;;
54599;SDS011;40500;51.084;16.958;2023-05-29T05:41:51;6.20;;;3.90;;
54599;SDS011;40500;51.084;16.958;2023-05-29T05:44:36;6.10;;;3.10;;
54599;SDS011;40500;51.084;16.958;2023-05-29T05:47:10;10.10;;;3.60;;
54599;SDS011;40500;51.084;16.958;2023-05-29T05:49:38;14.30;;;3.10;;
54599;SDS011;40500;51.084;16.958;2023-05-29T05:52:07;6.60;;;3.30;;
54599;SDS011;40500;51.084;16.958;2023-05-29T05:54:34;7.30;;;3.10;;
54599;SDS011;40500;51.084;16.958;2023-05-29T05:57:03;8.70;;;3.20;;
54599;SDS011;40500;51.084;16.958;2023-05-29T05:59:36;5.70;;;3.00;;
54599;SDS011;40500;51.084;16.958;2023-05-29T06:02:05;7.40;;;2.80;;
54599;SDS011;40500;51.084;16.958;2023-05-29T06:04:36;8.40;;;3.60;;
54599;SDS011;40500;51.084;16.958;2023-05-29T06:07:05;14.50;;;3.70;;
54599;SDS011;40500;51.084;16.958;2023-05-29T06:09:34;6.00;;;3.40;;
54599;SDS011;40500;51.084;16.958;2023-05-29T06:12:03;6.10;;;2.90;;
54599;SDS011;40500;51.084;16.958;2023-05-29T06:14:32;7.30;;;2.90;;
54599;SDS011;40500;51.084;16.958;2023-05-29T06:17:00;6.70;;;3.70;;
54599;SDS011;40500;51.084;16.958;2023-05-29T06:19:27;12.10;;;3.90;;
54599;SDS011;40500;51.084;16.958;2023-05-29T06:21:57;4.90;;;3.30;;
54599;SDS011;40500;51.084;16.958;2023-05-29T06:24:26;17.00;;;3.80;;
54599;SDS011;40500;51.084;16.958;2023-05-29T06:26:55;12.80;;;3.60;;
54599;SDS011;40500;51.084;16.958;2023-05-29T06:29:23;7.40;;;3.40;;
54599;SDS011;40500;51.084;16.958;2023-05-29T06:31:51;9.80;;;2.80;;
54599;SDS011;40500;51.084;16.958;2023-05-29T06:34:19;9.40;;;2.90;;
54599;SDS011;40500;51.084;16.958;2023-05-29T06:36:46;5.60;;;2.60;;
54599;SDS011;40500;51.084;16.958;2023-05-29T06:39:14;8.90;;;2.70;;
54599;SDS011;40500;51.084;16.958;2023-05-29T06:41:42;6.60;;;2.60;;
54599;SDS011;40500;51.084;16.958;2023-05-29T06:44:16;9.90;;;2.60;;
54599;SDS011;40500;51.084;16.958;2023-05-29T06:46:43;7.50;;;1.90;;
54599;SDS011;40500;51.084;16.958;2023-05-29T06:49:11;6.10;;;1.90;;
54599;SDS011;40500;51.084;16.958;2023-05-29T06:51:39;7.90;;;2.30;;
54599;SDS011;40500;51.084;16.958;2023-05-29T06:54:24;8.40;;;2.20;;
54599;SDS011;40500;51.084;16.958;2023-05-29T06:56:52;6.80;;;2.20;;
54599;SDS011;40500;51.084;16.958;2023-05-29T06:59:37;5.20;;;2.20;;
54599;SDS011;40500;51.084;16.958;2023-05-29T07:02:05;10.70;;;2.10;;
54599;SDS011;40500;51.084;16.958;2023-05-29T07:04:34;6.10;;;2.10;;
54599;SDS011;40500;51.084;16.958;2023-05-29T07:07:02;9.00;;;1.80;;
54599;SDS011;40500;51.084;16.958;2023-05-29T07:09:36;9.90;;;2.30;;
54599;SDS011;40500;51.084;16.958;2023-05-29T07:12:06;10.90;;;2.50;;
54599;SDS011;40500;51.084;16.958;2023-05-29T07:14:34;4.70;;;1.80;;
54599;SDS011;40500;51.084;16.958;2023-05-29T07:17:01;3.00;;;1.80;;
54599;SDS011;40500;51.084;16.958;2023-05-29T07:19:29;4.70;;;1.80;;
54599;SDS011;40500;51.084;16.958;2023-05-29T07:21:58;4.50;;;1.90;;
54599;SDS011;40500;51.084;16.958;2023-05-29T07:24:27;3.40;;;1.60;;
54599;SDS011;40500;51.084;16.958;2023-05-29T07:26:56;2.60;;;1.50;;
54599;SDS011;40500;51.084;16.958;2023-05-29T07:29:24;6.90;;;1.70;;
54599;SDS011;40500;51.084;16.958;2023-05-29T07:31:53;5.70;;;1.60;;
54599;SDS011;40500;51.084;16.958;2023-05-29T07:34:22;3.90;;;1.40;;
54599;SDS011;40500;51.084;16.958;2023-05-29T07:36:56;6.50;;;1.70;;
54599;SDS011;40500;51.084;16.958;2023-05-29T07:39:26;4.50;;;1.60;;
54599;SDS011;40500;51.084;16.958;2023-05-29T07:41:55;7.30;;;1.70;;
54599;SDS011;40500;51.084;16.958;2023-05-29T07:44:24;8.50;;;1.40;;
54599;SDS011;40500;51.084;16.958;2023-05-29T07:46:52;5.00;;;1.60;;
54599;SDS011;40500;51.084;16.958;2023-05-29T07:49:31;3.70;;;1.40;;
54599;SDS011;40500;51.084;16.958;2023-05-29T07:52:01;2.70;;;1.20;;
54599;SDS011;40500;51.084;16.958;2023-05-29T07:54:30;3.10;;;1.00;;
54599;SDS011;40500;51.084;16.958;2023-05-29T07:56:59;1.60;;;1.30;;
54599;SDS011;40500;51.084;16.958;2023-05-29T07:59:29;7.00;;;1.40;;
54599;SDS011;40500;51.084;16.958;2023-05-29T08:01:58;3.20;;;1.50;;
54599;SDS011;40500;51.084;16.958;2023-05-29T08:04:41;1.60;;;1.40;;
54599;SDS011;40500;51.084;16.958;2023-05-29T08:07:09;4.30;;;1.50;;
54599;SDS011;40500;51.084;16.958;2023-05-29T08:09:37;6.40;;;1.40;;
54599;SDS011;40500;51.084;16.958;2023-05-29T08:12:05;4.70;;;1.30;;
54599;SDS011;40500;51.084;16.958;2023-05-29T08:14:33;2.60;;;1.20;;
54599;SDS011;40500;51.084;16.958;2023-05-29T08:17:02;2.10;;;1.40;;
54599;SDS011;40500;51.084;16.958;2023-05-29T08:19:30;3.00;;;1.10;;
54599;SDS011;40500;51.084;16.958;2023-05-29T08:21:58;5.10;;;1.20;;
54599;SDS011;40500;51.084;16.958;2023-05-29T08:24:26;3.30;;;1.20;;
54599;SDS011;40500;51.084;16.958;2023-05-29T08:26:54;3.00;;;1.00;;
54599;SDS011;40500;51.084;16.958;2023-05-29T08:29:22;5.70;;;2.60;;
54599;SDS011;40500;51.084;16.958;2023-05-29T08:31:49;5.10;;;1.30;;
54599;SDS011;40500;51.084;16.958;2023-05-29T08:34:17;3.90;;;1.20;;
54599;SDS011;40500;51.084;16.958;2023-05-29T08:36:45;3.20;;;1.40;;
54599;SDS011;40500;51.084;16.958;2023-05-29T08:39:13;4.20;;;1.20;;
54599;SDS011;40500;51.084;16.958;2023-05-29T08:41:44;4.40;;;1.20;;
54599;SDS011;40500;51.084;16.958;2023-05-29T08:44:21;4.00;;;0.90;;
54599;SDS011;40500;51.084;16.958;2023-05-29T08:46:50;3.80;;;1.30;;
54599;SDS011;40500;51.084;16.958;2023-05-29T08:49:22;1.70;;;1.00;;
54599;SDS011;40500;51.084;16.958;2023-05-29T08:51:53;5.10;;;1.40;;
54599;SDS011;40500;51.084;16.958;2023-05-29T08:54:29;4.30;;;1.40;;
54599;SDS011;40500;51.084;16.958;2023-05-29T08:56:59;2.70;;;0.90;;
54599;SDS011;40500;51.084;16.958;2023-05-29T08:59:27;1.50;;;1.10;;
54599;SDS011;40500;51.084;16.958;2023-05-29T09:01:57;3.60;;;1.30;;
54599;SDS011;40500;51.084;16.958;2023-05-29T09:04:27;2.80;;;1.10;;
54599;SDS011;40500;51.084;16.958;2023-05-29T09:06:56;4.30;;;1.50;;
54599;SDS011;40500;51.084;16.958;2023-05-29T09:09:26;4.10;;;1.20;;
54599;SDS011;40500;51.084;16.958;2023-05-29T09:11:54;2.10;;;1.20;;
54599;SDS011;40500;51.084;16.958;2023-05-29T09:14:32;3.20;;;0.90;;
54599;SDS011;40500;51.084;16.958;2023-05-29T09:17:00;3.10;;;1.10;;
54599;SDS011;40500;51.084;16.958;2023-05-29T09:19:29;3.60;;;1.20;;
54599;SDS011;40500;51.084;16.958;2023-05-29T09:22:00;4.30;;;1.60;;
54599;SDS011;40500;51.084;16.958;2023-05-29T09:24:29;1.90;;;1.10;;
54599;SDS011;40500;51.084;16.958;2023-05-29T09:26:59;2.30;;;1.00;;
54599;SDS011;40500;51.084;16.958;2023-05-29T09:29:28;3.90;;;1.00;;
54599;SDS011;40500;51.084;16.958;2023-05-29T09:31:59;6.50;;;1.50;;
54599;SDS011;40500;51.084;16.958;2023-05-29T09:34:30;2.10;;;1.10;;
54599;SDS011;40500;51.084;16.958;2023-05-29T09:37:01;1.20;;;0.90;;
54599;SDS011;40500;51.084;16.958;2023-05-29T09:39:34;4.90;;;1.30;;
54599;SDS011;40500;51.084;16.958;2023-05-29T09:42:11;2.20;;;1.20;;
54599;SDS011;40500;51.084;16.958;2023-05-29T09:44:40;5.20;;;1.30;;
54599;SDS011;40500;51.084;16.958;2023-05-29T09:47:09;6.00;;;1.30;;
54599;SDS011;40500;51.084;16.958;2023-05-29T09:49:43;4.80;;;1.20;;
54599;SDS011;40500;51.084;16.958;2023-05-29T09:52:12;2.10;;;1.30;;
54599;SDS011;40500;51.084;16.958;2023-05-29T09:54:42;1.90;;;1.00;;
54599;SDS011;40500;51.084;16.958;2023-05-29T09:57:12;2.60;;;1.20;;
54599;SDS011;40500;51.084;16.958;2023-05-29T09:59:41;2.80;;;1.30;;
54599;SDS011;40500;51.084;16.958;2023-05-29T10:02:11;4.90;;;1.40;;
54599;SDS011;40500;51.084;16.958;2023-05-29T10:04:41;2.10;;;1.10;;
54599;SDS011;40500;51.084;16.958;2023-05-29T10:07:12;3.30;;;1.20;;
54599;SDS011;40500;51.084;16.958;2023-05-29T10:12:18;3.00;;;1.30;;
54599;SDS011;40500;51.084;16.958;2023-05-29T10:14:48;2.40;;;1.40;;
54599;SDS011;40500;51.084;16.958;2023-05-29T10:17:21;5.30;;;1.30;;
54599;SDS011;40500;51.084;16.958;2023-05-29T10:19:54;2.40;;;1.20;;
54599;SDS011;40500;51.084;16.958;2023-05-29T10:22:25;1.80;;;1.30;;
54599;SDS011;40500;51.084;16.958;2023-05-29T10:24:54;2.30;;;1.10;;
54599;SDS011;40500;51.084;16.958;2023-05-29T10:27:24;2.50;;;1.10;;
54599;SDS011;40500;51.084;16.958;2023-05-29T10:29:53;4.60;;;1.60;;
54599;SDS011;40500;51.084;16.958;2023-05-29T10:32:29;3.20;;;1.60;;
54599;SDS011;40500;51.084;16.958;2023-05-29T10:35:14;5.90;;;1.80;;
54599;SDS011;40500;51.084;16.958;2023-05-29T10:37:49;5.70;;;1.40;;
54599;SDS011;40500;51.084;16.958;2023-05-29T10:40:24;4.20;;;1.50;;
54599;SDS011;40500;51.084;16.958;2023-05-29T10:42:53;3.20;;;1.50;;
54599;SDS011;40500;51.084;16.958;2023-05-29T10:48:39;5.10;;;1.40;;
54599;SDS011;40500;51.084;16.958;2023-05-29T10:51:24;4.90;;;1.70;;
54599;SDS011;40500;51.084;16.958;2023-05-29T10:53:53;1.40;;;1.30;;
54599;SDS011;40500;51.084;16.958;2023-05-29T10:56:21;4.00;;;1.60;;
54599;SDS011;40500;51.084;16.958;2023-05-29T10:58:55;3.70;;;1.50;;
54599;SDS011;40500;51.084;16.958;2023-05-29T11:01:24;2.20;;;1.50;;
54599;SDS011;40500;51.084;16.958;2023-05-29T11:04:01;4.20;;;1.60;;
54599;SDS011;40500;51.084;16.958;2023-05-29T11:06:58;2.30;;;1.20;;
54599;SDS011;40500;51.084;16.958;2023-05-29T11:09:27;4.80;;;2.00;;
54599;SDS011;40500;51.084;16.958;2023-05-29T11:12:15;8.80;;;1.70;;
54599;SDS011;40500;51.084;16.958;2023-05-29T11:15:03;4.10;;;1.40;;
54599;SDS011;40500;51.084;16.958;2023-05-29T11:17:42;2.70;;;1.20;;
54599;SDS011;40500;51.084;16.958;2023-05-29T11:20:27;4.50;;;1.40;;
54599;SDS011;40500;51.084;16.958;2023-05-29T11:23:03;4.30;;;1.50;;
54599;SDS011;40500;51.084;16.958;2023-05-29T11:25:35;2.80;;;1.40;;
54599;SDS011;40500;51.084;16.958;2023-05-29T11:28:04;4.00;;;1.50;;
54599;SDS011;40500;51.084;16.958;2023-05-29T11:30:43;2.50;;;1.50;;
54599;SDS011;40500;51.084;16.958;2023-05-29T11:33:15;3.20;;;1.40;;
54599;SDS011;40500;51.084;16.958;2023-05-29T11:35:58;2.50;;;1.50;;
54599;SDS011;40500;51.084;16.958;2023-05-29T11:38:27;1.80;;;1.10;;
54599;SDS011;40500;51.084;16.958;2023-05-29T11:40:55;4.40;;;1.60;;
54599;SDS011;40500;51.084;16.958;2023-05-29T11:43:24;3.60;;;1.40;;
54599;SDS011;40500;51.084;16.958;2023-05-29T11:45:52;4.30;;;1.30;;
54599;SDS011;40500;51.084;16.958;2023-05-29T11:48:20;6.10;;;1.60;;
54599;SDS011;40500;51.084;16.958;2023-05-29T11:50:50;2.50;;;1.40;;
54599;SDS011;40500;51.084;16.958;2023-05-29T11:53:17;5.80;;;1.80;;
54599;SDS011;40500;51.084;16.958;2023-05-29T11:55:45;2.10;;;1.30;;
54599;SDS011;40500;51.084;16.958;2023-05-29T11:58:13;4.60;;;1.60;;
54599;SDS011;40500;51.084;16.958;2023-05-29T12:00:42;7.00;;;1.80;;
54599;SDS011;40500;51.084;16.958;2023-05-29T12:03:13;3.00;;;1.20;;
54599;SDS011;40500;51.084;16.958;2023-05-29T12:05:44;4.90;;;1.50;;
54599;SDS011;40500;51.084;16.958;2023-05-29T12:08:14;5.60;;;1.50;;
54599;SDS011;40500;51.084;16.958;2023-05-29T12:10:49;2.80;;;1.60;;
54599;SDS011;40500;51.084;16.958;2023-05-29T12:13:19;5.20;;;1.60;;
54599;SDS011;40500;51.084;16.958;2023-05-29T12:15:47;6.10;;;1.50;;
54599;SDS011;40500;51.084;16.958;2023-05-29T12:18:19;2.30;;;1.60;;
54599;SDS011;40500;51.084;16.958;2023-05-29T12:20:47;8.50;;;1.50;;
54599;SDS011;40500;51.084;16.958;2023-05-29T12:23:16;1.50;;;1.10;;
54599;SDS011;40500;51.084;16.958;2023-05-29T12:25:48;2.40;;;1.40;;
54599;SDS011;40500;51.084;16.958;2023-05-29T12:28:17;4.50;;;1.40;;
54599;SDS011;40500;51.084;16.958;2023-05-29T12:30:47;4.30;;;1.60;;
54599;SDS011;40500;51.084;16.958;2023-05-29T12:33:25;4.00;;;1.40;;
54599;SDS011;40500;51.084;16.958;2023-05-29T12:35:54;3.70;;;1.50;;
54599;SDS011;40500;51.084;16.958;2023-05-29T12:38:28;3.00;;;1.80;;
54599;SDS011;40500;51.084;16.958;2023-05-29T12:40:56;3.60;;;1.30;;
54599;SDS011;40500;51.084;16.958;2023-05-29T12:43:24;3.70;;;1.50;;
54599;SDS011;40500;51.084;16.958;2023-05-29T12:45:55;2.70;;;2.10;;
54599;SDS011;40500;51.084;16.958;2023-05-29T12:48:26;4.00;;;1.40;;
54599;SDS011;40500;51.084;16.958;2023-05-29T12:50:57;3.50;;;1.40;;
54599;SDS011;40500;51.084;16.958;2023-05-29T12:53:28;3.30;;;1.20;;
54599;SDS011;40500;51.084;16.958;2023-05-29T12:55:57;4.00;;;1.60;;
54599;SDS011;40500;51.084;16.958;2023-05-29T12:58:25;2.30;;;1.30;;
54599;SDS011;40500;51.084;16.958;2023-05-29T13:00:55;4.30;;;1.60;;
54599;SDS011;40500;51.084;16.958;2023-05-29T13:03:23;3.00;;;1.20;;
54599;SDS011;40500;51.084;16.958;2023-05-29T13:05:51;6.70;;;1.40;;
54599;SDS011;40500;51.084;16.958;2023-05-29T13:08:20;2.80;;;1.60;;
54599;SDS011;40500;51.084;16.958;2023-05-29T13:10:48;1.90;;;1.40;;
54599;SDS011;40500;51.084;16.958;2023-05-29T13:13:15;2.60;;;1.50;;
54599;SDS011;40500;51.084;16.958;2023-05-29T13:15:44;3.00;;;1.40;;
54599;SDS011;40500;51.084;16.958;2023-05-29T13:18:12;1.40;;;1.30;;
54599;SDS011;40500;51.084;16.958;2023-05-29T13:20:40;4.80;;;1.60;;
54599;SDS011;40500;51.084;16.958;2023-05-29T13:23:08;4.60;;;1.50;;
54599;SDS011;40500;51.084;16.958;2023-05-29T13:25:36;4.20;;;1.30;;
54599;SDS011;40500;51.084;16.958;2023-05-29T13:28:04;2.60;;;1.50;;
54599;SDS011;40500;51.084;16.958;2023-05-29T13:30:32;3.20;;;1.40;;
54599;SDS011;40500;51.084;16.958;2023-05-29T13:33:00;2.80;;;1.40;;
54599;SDS011;40500;51.084;16.958;2023-05-29T13:35:28;9.80;;;3.60;;
54599;SDS011;40500;51.084;16.958;2023-05-29T13:37:56;8.10;;;3.20;;
54599;SDS011;40500;51.084;16.958;2023-05-29T13:40:23;3.00;;;1.60;;
54599;SDS011;40500;51.084;16.958;2023-05-29T13:42:52;5.40;;;2.80;;
54599;SDS011;40500;51.084;16.958;2023-05-29T13:45:20;5.30;;;1.50;;
54599;SDS011;40500;51.084;16.958;2023-05-29T13:47:47;4.50;;;2.10;;
54599;SDS011;40500;51.084;16.958;2023-05-29T13:50:18;6.60;;;2.30;;
54599;SDS011;40500;51.084;16.958;2023-05-29T13:52:46;6.70;;;2.70;;
54599;SDS011;40500;51.084;16.958;2023-05-29T13:55:14;5.50;;;2.60;;
54599;SDS011;40500;51.084;16.958;2023-05-29T13:57:41;1.70;;;1.40;;
54599;SDS011;40500;51.084;16.958;2023-05-29T14:00:20;4.20;;;1.50;;
54599;SDS011;40500;51.084;16.958;2023-05-29T14:02:48;4.10;;;1.70;;
54599;SDS011;40500;51.084;16.958;2023-05-29T14:05:17;3.40;;;1.70;;
54599;SDS011;40500;51.084;16.958;2023-05-29T14:07:45;2.30;;;1.50;;
54599;SDS011;40500;51.084;16.958;2023-05-29T14:10:14;3.00;;;1.50;;
54599;SDS011;40500;51.084;16.958;2023-05-29T14:12:42;3.60;;;1.80;;
54599;SDS011;40500;51.084;16.958;2023-05-29T14:15:11;2.50;;;1.40;;
54599;SDS011;40500;51.084;16.958;2023-05-29T14:17:55;2.60;;;1.20;;
54599;SDS011;40500;51.084;16.958;2023-05-29T14:20:23;3.50;;;1.40;;
54599;SDS011;40500;51.084;16.958;2023-05-29T14:22:52;4.70;;;1.30;;
54599;SDS011;40500;51.084;16.958;2023-05-29T14:25:19;2.80;;;1.20;;
54599;SDS011;40500;51.084;16.958;2023-05-29T14:27:48;4.10;;;1.60;;
54599;SDS011;40500;51.084;16.958;2023-05-29T14:30:16;4.50;;;2.00;;
54599;SDS011;40500;51.084;16.958;2023-05-29T14:32:45;2.40;;;1.30;;
54599;SDS011;40500;51.084;16.958;2023-05-29T14:35:12;2.20;;;1.20;;
54599;SDS011;40500;51.084;16.958;2023-05-29T14:37:41;2.70;;;1.40;;
54599;SDS011;40500;51.084;16.958;2023-05-29T14:40:09;2.40;;;1.50;;
54599;SDS011;40500;51.084;16.958;2023-05-29T14:42:38;3.80;;;1.30;;
54599;SDS011;40500;51.084;16.958;2023-05-29T14:45:06;3.40;;;1.50;;
54599;SDS011;40500;51.084;16.958;2023-05-29T14:47:35;4.50;;;1.40;;
54599;SDS011;40500;51.084;16.958;2023-05-29T14:50:04;1.90;;;1.60;;
54599;SDS011;40500;51.084;16.958;2023-05-29T14:52:33;4.20;;;1.50;;
54599;SDS011;40500;51.084;16.958;2023-05-29T14:55:01;2.00;;;1.60;;
54599;SDS011;40500;51.084;16.958;2023-05-29T14:57:32;2.40;;;1.50;;
54599;SDS011;40500;51.084;16.958;2023-05-29T15:00:01;1.70;;;1.40;;